createdAt,value
2019-04-03T00:00:40.942Z,13.65
2019-04-03T00:03:11.184Z,13.63
2019-04-03T00:05:41.318Z,13.63
2019-04-03T00:08:12.772Z,13.60
2019-04-03T00:10:43.142Z,13.56
2019-04-03T00:13:13.735Z,13.54
2019-04-03T00:15:44.774Z,13.49
2019-04-03T00:18:16.559Z,13.47
2019-04-03T00:20:49.171Z,13.44
2019-04-03T00:23:20.606Z,13.41
2019-04-03T00:25:52.836Z,13.35
2019-04-03T00:28:23.167Z,13.35
2019-04-03T00:30:53.406Z,13.31
2019-04-03T00:33:23.938Z,13.30
2019-04-03T00:35:54.492Z,13.26
2019-04-03T00:38:25.741Z,13.29
2019-04-03T00:40:57.049Z,13.29
2019-04-03T00:43:27.261Z,13.25
2019-04-03T00:45:57.511Z,13.21
2019-04-03T00:48:27.645Z,13.21
2019-04-03T00:50:58.048Z,13.16
2019-04-03T00:53:28.359Z,13.14
2019-04-03T00:55:58.765Z,13.13
2019-04-03T00:58:39.897Z,13.07
2019-04-03T01:01:11.860Z,13.01
2019-04-03T01:03:42.203Z,12.98
2019-04-03T01:06:12.613Z,12.92
2019-04-03T01:08:42.932Z,12.89
2019-04-03T01:11:13.396Z,12.85
2019-04-03T01:13:43.875Z,12.83
2019-04-03T01:16:14.187Z,12.79
2019-04-03T01:18:45.454Z,12.79
2019-04-03T01:21:15.865Z,12.79
2019-04-03T01:23:46.120Z,12.80
2019-04-03T01:26:16.257Z,12.82
2019-04-03T01:28:46.367Z,12.81
2019-04-03T01:31:16.632Z,12.79
2019-04-03T01:33:47.185Z,12.76
2019-04-03T01:36:18.219Z,12.64
2019-04-03T01:38:49.806Z,12.60
2019-04-03T01:41:21.676Z,12.58
2019-04-03T01:43:53.989Z,12.61
2019-04-03T01:46:24.336Z,12.54
2019-04-03T01:48:58.024Z,12.56
2019-04-03T01:51:29.691Z,12.59
2019-04-03T01:54:02.311Z,12.64
2019-04-03T01:56:32.017Z,12.70
2019-04-03T01:59:02.627Z,12.67
2019-04-03T02:01:33.318Z,12.65
2019-04-03T02:04:04.480Z,12.63
2019-04-03T02:06:34.847Z,12.64
2019-04-03T02:09:08.047Z,12.61
2019-04-03T02:11:38.799Z,12.58
2019-04-03T02:14:09.240Z,12.61
2019-04-03T02:16:39.562Z,12.51
2019-04-03T02:19:09.871Z,12.52
2019-04-03T02:21:40.022Z,12.47
2019-04-03T02:24:10.325Z,12.42
2019-04-03T02:26:41.687Z,12.42
2019-04-03T02:29:11.898Z,12.39
2019-04-03T02:31:42.266Z,12.34
2019-04-03T02:34:13.776Z,12.30
2019-04-03T02:36:45.415Z,12.29
2019-04-03T02:39:18.355Z,12.22
2019-04-03T02:41:48.450Z,12.14
2019-04-03T02:44:20.062Z,12.07
2019-04-03T02:46:50.502Z,12.06
2019-04-03T02:49:20.928Z,12.02
2019-04-03T02:51:53.024Z,11.98
2019-04-03T02:54:28.826Z,11.93
2019-04-03T02:56:59.525Z,11.88
2019-04-03T02:59:29.799Z,11.84
2019-04-03T03:02:00.413Z,11.84
2019-04-03T03:04:30.767Z,11.81
2019-04-03T03:07:03.892Z,11.73
2019-04-03T03:09:33.532Z,11.66
2019-04-03T03:12:04.067Z,11.60
2019-04-03T03:14:38.230Z,11.57
2019-04-03T03:17:07.156Z,11.54
2019-04-03T03:19:38.083Z,11.51
2019-04-03T03:22:09.222Z,11.48
2019-04-03T03:24:41.283Z,11.46
2019-04-03T03:27:12.269Z,11.37
2019-04-03T03:29:43.954Z,11.37
2019-04-03T03:32:19.902Z,11.31
2019-04-03T03:34:54.706Z,11.28
2019-04-03T03:37:18.999Z,11.30
2019-04-03T03:39:49.539Z,11.20
2019-04-03T03:42:20.231Z,10.95
2019-04-03T03:44:50.545Z,10.92
2019-04-03T03:47:20.911Z,11.01
2019-04-03T03:49:51.192Z,11.04
2019-04-03T03:52:22.195Z,11.07
2019-04-03T03:54:52.693Z,10.99
2019-04-03T03:57:23.308Z,10.93
2019-04-03T03:59:53.695Z,10.92
2019-04-03T04:02:24.027Z,10.82
2019-04-03T04:04:54.563Z,10.71
2019-04-03T04:07:25.139Z,10.80
2019-04-03T04:09:55.492Z,10.78
2019-04-03T04:12:25.894Z,10.81
2019-04-03T04:14:57.216Z,10.80
2019-04-03T04:17:29.168Z,10.74
2019-04-03T04:20:03.068Z,10.73
2019-04-03T04:22:32.173Z,10.70
2019-04-03T04:25:05.346Z,10.67
2019-04-03T04:27:37.549Z,10.69
2019-04-03T04:30:07.815Z,10.66
2019-04-03T04:32:38.001Z,10.66
2019-04-03T04:35:10.732Z,10.62
2019-04-03T04:37:40.810Z,10.49
2019-04-03T04:40:11.595Z,10.17
2019-04-03T04:42:41.716Z,10.16
2019-04-03T04:45:12.481Z,10.15
2019-04-03T04:47:45.534Z,10.30
2019-04-03T04:50:24.261Z,10.30
2019-04-03T04:52:54.196Z,10.34
2019-04-03T04:55:24.560Z,10.30
2019-04-03T04:57:54.768Z,10.31
2019-04-03T05:00:25.097Z,10.28
2019-04-03T05:02:55.573Z,10.21
2019-04-03T05:05:27.414Z,10.19
2019-04-03T05:07:59.694Z,10.12
2019-04-03T05:18:30.835Z,10.13
2019-04-03T05:21:01.542Z,10.05
2019-04-03T05:23:31.959Z,10.03
2019-04-03T05:26:02.364Z,10.02
2019-04-03T05:28:34.189Z,9.96
2019-04-03T05:31:06.067Z,9.97
2019-04-03T05:33:37.298Z,9.97
2019-04-03T05:36:08.653Z,9.99
2019-04-03T05:38:38.976Z,9.91
2019-04-03T05:41:09.190Z,9.98
2019-04-03T05:43:39.352Z,10.00
2019-04-03T05:46:09.768Z,9.91
2019-04-03T05:48:40.073Z,10.00
2019-04-03T05:51:10.496Z,10.06
2019-04-03T05:53:41.031Z,10.08
2019-04-03T05:56:12.405Z,10.14
2019-04-03T05:58:54.466Z,10.03
2019-04-03T06:01:16.282Z,10.02
2019-04-03T06:03:46.503Z,10.05
2019-04-03T06:06:16.812Z,10.06
2019-04-03T06:08:50.885Z,10.06
2019-04-03T06:11:20.852Z,10.01
2019-04-03T06:13:51.813Z,10.08
2019-04-03T06:16:24.564Z,10.21
2019-04-03T06:18:56.997Z,10.16
2019-04-03T06:21:27.714Z,10.30
2019-04-03T06:23:58.280Z,10.40
2019-04-03T06:26:29.022Z,10.52
2019-04-03T06:28:59.219Z,10.63
2019-04-03T06:31:29.618Z,10.59
2019-04-03T06:34:00.265Z,10.68
2019-04-03T06:36:31.076Z,10.73
2019-04-03T06:39:01.761Z,10.69
2019-04-03T06:41:32.368Z,10.73
2019-04-03T06:44:04.061Z,10.78
2019-04-03T06:46:34.780Z,10.79
2019-04-03T06:49:08.250Z,10.79
2019-04-03T06:51:37.645Z,10.92
2019-04-03T06:54:08.375Z,10.96
2019-04-03T06:56:40.523Z,10.99
2019-04-03T06:59:11.532Z,11.10
2019-04-03T07:01:41.892Z,11.17
2019-04-03T07:04:12.405Z,11.19
2019-04-03T07:06:44.738Z,11.21
2019-04-03T07:09:22.367Z,11.32
2019-04-03T07:11:47.108Z,11.51
2019-04-03T07:14:17.592Z,11.67
2019-04-03T07:16:47.767Z,11.85
2019-04-03T07:19:17.983Z,12.05
2019-04-03T07:21:48.328Z,12.24
2019-04-03T07:24:18.731Z,12.63
2019-04-03T07:26:49.407Z,13.36
2019-04-03T07:29:19.710Z,13.73
2019-04-03T07:31:51.026Z,13.86
2019-04-03T07:34:21.216Z,13.59
2019-04-03T07:36:51.386Z,13.96
2019-04-03T07:39:21.714Z,14.61
2019-04-03T07:41:54.411Z,15.61
2019-04-03T07:44:24.697Z,16.73
2019-04-03T07:46:55.689Z,17.89
2019-04-03T07:49:25.942Z,18.92
2019-04-03T07:51:56.582Z,18.69
2019-04-03T07:54:27.266Z,18.43
2019-04-03T07:56:58.187Z,17.93
2019-04-03T07:59:29.574Z,18.01
2019-04-03T08:02:00.014Z,18.49
2019-04-03T08:04:30.362Z,19.04
2019-04-03T08:07:00.541Z,18.98
2019-04-03T08:09:30.670Z,18.37
2019-04-03T08:12:03.437Z,17.51
2019-04-03T08:14:32.995Z,16.81
2019-04-03T08:17:03.397Z,16.65
2019-04-03T08:19:37.035Z,17.28
2019-04-03T08:22:07.393Z,17.20
2019-04-03T08:24:37.932Z,17.16
2019-04-03T08:27:09.655Z,16.66
2019-04-03T08:29:39.879Z,15.74
2019-04-03T08:32:10.611Z,15.34
2019-04-03T08:34:42.371Z,14.96
2019-04-03T08:37:12.569Z,15.14
2019-04-03T08:39:43.413Z,14.75
2019-04-03T08:42:14.137Z,14.73
2019-04-03T08:44:44.853Z,14.80
2019-04-03T08:47:15.387Z,14.41
2019-04-03T08:49:45.658Z,14.67
2019-04-03T08:52:16.451Z,14.77
2019-04-03T08:54:46.988Z,15.03
2019-04-03T08:57:20.522Z,15.08
2019-04-03T08:59:50.092Z,15.51
2019-04-03T09:02:20.588Z,15.47
2019-04-03T09:04:51.204Z,15.11
2019-04-03T09:07:24.636Z,14.54
2019-04-03T09:09:54.455Z,14.60
2019-04-03T09:12:25.384Z,14.52
2019-04-03T09:14:57.034Z,14.47
2019-04-03T09:17:28.514Z,14.16
2019-04-03T09:19:58.905Z,14.14
2019-04-03T09:22:30.491Z,14.31
2019-04-03T09:25:01.033Z,14.53
2019-04-03T09:27:31.209Z,15.20
2019-04-03T09:30:01.463Z,15.19
2019-04-03T09:32:33.349Z,15.52
2019-04-03T09:35:11.526Z,15.33
2019-04-03T09:37:41.732Z,16.85
2019-04-03T09:40:12.193Z,17.02
2019-04-03T09:42:42.894Z,16.58
2019-04-03T09:45:13.460Z,17.74
2019-04-03T09:47:44.594Z,18.37
2019-04-03T09:50:15.427Z,18.65
2019-04-03T09:52:49.386Z,18.95
2019-04-03T09:55:18.697Z,18.93
2019-04-03T09:57:49.007Z,19.74
2019-04-03T10:00:19.870Z,21.50
2019-04-03T10:02:51.562Z,23.47
2019-04-03T10:05:22.277Z,25.83
2019-04-03T10:07:52.790Z,25.26
2019-04-03T10:10:25.659Z,24.27
2019-04-03T10:12:55.454Z,22.48
2019-04-03T10:15:25.966Z,22.50
2019-04-03T10:17:56.713Z,21.07
2019-04-03T10:20:27.548Z,20.06
2019-04-03T10:22:57.985Z,20.07
2019-04-03T10:25:28.641Z,19.12
2019-04-03T10:27:59.569Z,18.49
2019-04-03T10:30:30.178Z,18.67
2019-04-03T10:33:01.038Z,18.64
2019-04-03T10:35:32.837Z,17.52
2019-04-03T10:38:03.176Z,18.10
2019-04-03T10:40:33.399Z,18.26
2019-04-03T10:43:06.017Z,18.16
2019-04-03T10:45:35.900Z,18.00
2019-04-03T10:48:07.879Z,18.68
2019-04-03T10:50:38.960Z,20.33
2019-04-03T10:53:09.198Z,20.85
2019-04-03T10:55:39.503Z,21.13
2019-04-03T10:58:09.907Z,22.64
2019-04-03T11:00:40.791Z,25.78
2019-04-03T11:03:12.128Z,25.78
2019-04-03T11:05:42.656Z,26.71
2019-04-03T11:08:14.088Z,26.53
2019-04-03T11:10:44.490Z,26.62
2019-04-03T11:13:14.751Z,27.63
2019-04-03T11:15:45.152Z,29.05
2019-04-03T11:18:15.972Z,28.41
2019-04-03T11:20:46.150Z,28.25
2019-04-03T11:23:16.374Z,27.06
2019-04-03T11:25:47.615Z,27.62
2019-04-03T11:28:18.445Z,29.14
2019-04-03T11:30:51.125Z,30.48
2019-04-03T11:33:20.871Z,31.21
2019-04-03T11:35:53.676Z,32.49
2019-04-03T11:38:27.963Z,33.06
2019-04-03T11:40:55.280Z,33.16
2019-04-03T11:43:25.674Z,34.44
2019-04-03T11:45:57.193Z,35.27
2019-04-03T11:48:27.755Z,34.16
2019-04-03T11:50:58.289Z,36.06
2019-04-03T11:53:28.454Z,36.72
2019-04-03T11:55:58.905Z,36.57
2019-04-03T11:58:29.352Z,35.02
2019-04-03T12:00:59.994Z,35.02
2019-04-03T12:03:30.420Z,33.52
2019-04-03T12:06:00.948Z,34.19
2019-04-03T12:08:31.615Z,34.55
2019-04-03T12:11:01.948Z,35.12
2019-04-03T12:13:32.306Z,34.35
2019-04-03T12:16:02.879Z,35.95
2019-04-03T12:18:34.234Z,35.82
2019-04-03T12:21:05.694Z,35.36
2019-04-03T12:23:38.772Z,36.53
2019-04-03T12:26:10.511Z,37.61
2019-04-03T12:28:40.104Z,38.38
2019-04-03T12:31:10.540Z,37.15
2019-04-03T12:33:51.978Z,36.53
2019-04-03T12:36:14.443Z,37.33
2019-04-03T12:38:44.988Z,36.79
2019-04-03T12:41:15.592Z,35.46
2019-04-03T12:43:46.132Z,36.33
2019-04-03T12:46:21.031Z,35.22
2019-04-03T12:48:51.463Z,32.78
2019-04-03T12:51:21.954Z,33.28
2019-04-03T12:53:52.633Z,32.20
2019-04-03T12:56:25.231Z,32.07
2019-04-03T12:58:55.340Z,31.48
2019-04-03T13:01:27.640Z,30.25
2019-04-03T13:03:58.225Z,29.90
2019-04-03T13:06:28.634Z,29.34
2019-04-03T13:08:58.903Z,28.87
2019-04-03T13:11:29.761Z,27.46
2019-04-03T13:14:02.020Z,27.66
2019-04-03T13:16:32.355Z,26.93
2019-04-03T13:19:03.110Z,27.01
2019-04-03T13:21:33.861Z,26.50
2019-04-03T13:24:04.334Z,24.26
2019-04-03T13:26:34.916Z,24.26
2019-04-03T13:29:08.619Z,24.40
2019-04-03T13:31:38.007Z,23.12
2019-04-03T13:34:11.212Z,23.53
2019-04-03T13:36:41.043Z,23.63
2019-04-03T13:39:11.987Z,23.21
2019-04-03T13:41:43.334Z,23.17
2019-04-03T13:44:14.504Z,22.89
2019-04-03T13:46:45.366Z,22.92
2019-04-03T13:49:18.087Z,22.95
2019-04-03T13:51:47.939Z,23.21
2019-04-03T13:54:18.479Z,23.89
2019-04-03T13:56:49.004Z,25.14
2019-04-03T13:59:19.339Z,25.49
2019-04-03T14:01:50.861Z,25.58
2019-04-03T14:04:22.931Z,25.86
2019-04-03T14:06:53.920Z,25.08
2019-04-03T14:09:24.303Z,24.30
2019-04-03T14:11:54.760Z,23.34
2019-04-03T14:14:25.771Z,23.25
2019-04-03T14:16:56.410Z,23.25
2019-04-03T14:19:26.784Z,22.06
2019-04-03T14:21:59.986Z,21.65
2019-04-03T14:24:39.611Z,20.74
2019-04-03T14:27:01.649Z,21.10
2019-04-03T14:29:32.594Z,21.32
2019-04-03T14:32:03.201Z,20.59
2019-04-03T14:34:33.745Z,19.99
2019-04-03T14:37:04.168Z,19.39
2019-04-03T14:39:34.394Z,18.85
2019-04-03T14:42:07.166Z,18.85
2019-04-03T14:44:38.150Z,18.90
2019-04-03T14:47:09.998Z,18.24
2019-04-03T14:49:40.674Z,18.72
2019-04-03T14:52:10.984Z,18.47
2019-04-03T14:54:41.472Z,18.47
2019-04-03T14:57:19.254Z,18.62
2019-04-03T14:59:44.390Z,18.50
2019-04-03T15:02:14.780Z,17.74
2019-04-03T15:04:45.324Z,17.56
2019-04-03T15:07:17.788Z,17.52
2019-04-03T15:09:48.133Z,16.85
2019-04-03T15:12:21.522Z,16.75
2019-04-03T15:14:52.235Z,16.15
2019-04-03T15:17:23.999Z,15.78
2019-04-03T15:19:56.630Z,15.93
2019-04-03T15:22:27.957Z,15.58
2019-04-03T15:24:58.441Z,15.22
2019-04-03T15:27:29.684Z,14.80
2019-04-03T15:30:00.314Z,14.77
2019-04-03T15:32:33.473Z,14.81
2019-04-03T15:35:04.183Z,14.61
2019-04-03T15:37:35.060Z,14.20
2019-04-03T15:40:06.305Z,13.93
2019-04-03T15:42:39.837Z,13.61
2019-04-03T15:45:09.533Z,13.37
2019-04-03T15:47:44.955Z,13.27
2019-04-03T15:50:13.079Z,12.39
2019-04-03T15:52:47.874Z,11.27
2019-04-03T15:55:16.426Z,11.27
2019-04-03T15:57:48.283Z,11.38
2019-04-03T16:00:19.435Z,11.04
2019-04-03T16:02:50.766Z,10.64
2019-04-03T16:05:21.067Z,11.02
2019-04-03T16:07:51.826Z,10.88
2019-04-03T16:10:24.227Z,9.99
2019-04-03T16:12:57.150Z,9.89
2019-04-03T16:15:27.766Z,9.96
2019-04-03T16:17:58.998Z,9.24
2019-04-03T16:20:29.926Z,9.32
2019-04-03T16:23:01.343Z,9.47
2019-04-03T16:25:32.590Z,9.28
2019-04-03T16:28:03.234Z,9.38
2019-04-03T16:30:34.145Z,9.23
2019-04-03T16:33:05.090Z,8.71
2019-04-03T16:35:37.408Z,8.53
2019-04-03T16:38:08.370Z,8.78
2019-04-03T16:40:39.484Z,8.91
2019-04-03T16:43:11.649Z,8.83
2019-04-03T16:45:42.328Z,8.67
2019-04-03T16:48:15.929Z,8.72
2019-04-03T16:50:46.309Z,8.73
2019-04-03T16:53:20.235Z,8.64
2019-04-03T16:55:50.667Z,8.55
2019-04-03T16:58:21.767Z,8.51
2019-04-03T17:00:52.584Z,8.49
2019-04-03T17:03:23.434Z,8.11
2019-04-03T17:05:54.224Z,8.00
2019-04-03T17:08:27.551Z,8.07
2019-04-03T17:10:58.013Z,8.26
2019-04-03T17:13:31.734Z,8.34
2019-04-03T17:16:02.505Z,8.40
2019-04-03T17:18:33.558Z,8.44
2019-04-03T17:21:04.014Z,8.24
2019-04-03T17:23:38.157Z,8.22
2019-04-03T17:26:09.743Z,8.33
2019-04-03T17:28:41.730Z,8.33
2019-04-03T17:31:12.820Z,8.34
2019-04-03T17:33:43.740Z,8.38
2019-04-03T17:36:14.155Z,8.36
2019-04-03T17:38:47.202Z,8.22
2019-04-03T17:41:18.192Z,8.11
2019-04-03T17:43:49.297Z,8.12
2019-04-03T17:46:20.020Z,8.12
2019-04-03T17:48:50.565Z,8.10
2019-04-03T17:51:21.084Z,7.93
2019-04-03T17:53:51.695Z,8.01
2019-04-03T17:56:22.760Z,7.99
2019-04-03T17:58:53.408Z,7.89
2019-04-03T18:01:23.916Z,7.77
2019-04-03T18:03:54.724Z,7.70
2019-04-03T18:06:27.129Z,7.62
2019-04-03T18:08:57.782Z,7.62
2019-04-03T18:11:28.456Z,7.42
2019-04-03T18:13:59.336Z,7.60
2019-04-03T18:16:30.273Z,7.60
2019-04-03T18:19:04.564Z,7.57
2019-04-03T18:21:34.226Z,7.58
2019-04-03T18:24:05.092Z,7.54
2019-04-03T18:26:35.477Z,7.56
2019-04-03T18:29:06.634Z,7.52
2019-04-03T18:31:37.851Z,7.53
2019-04-03T18:34:08.418Z,7.56
2019-04-03T18:36:38.990Z,7.56
2019-04-03T18:39:11.021Z,7.50
2019-04-03T18:41:41.758Z,7.52
2019-04-03T18:44:22.018Z,7.54
2019-04-03T18:46:44.867Z,7.57
2019-04-03T18:49:15.569Z,7.58
2019-04-03T18:51:45.984Z,7.58
2019-04-03T18:54:16.411Z,7.56
2019-04-03T18:56:46.742Z,7.55
2019-04-03T18:59:17.279Z,7.51
2019-04-03T19:01:47.905Z,7.42
2019-04-03T19:04:23.612Z,7.40
2019-04-03T19:06:55.004Z,7.32
2019-04-03T19:09:26.008Z,7.40
2019-04-03T19:12:08.016Z,7.40
2019-04-03T19:14:32.114Z,7.41
2019-04-03T19:17:02.928Z,7.34
2019-04-03T19:19:33.685Z,7.25
2019-04-03T19:22:04.666Z,7.18
2019-04-03T19:24:35.165Z,7.21
2019-04-03T19:27:05.915Z,7.29
2019-04-03T19:29:36.426Z,7.38
2019-04-03T19:32:07.005Z,7.38
2019-04-03T19:34:37.301Z,7.39
2019-04-03T19:37:07.884Z,7.39
2019-04-03T19:39:38.866Z,7.44
2019-04-03T19:42:09.695Z,7.46
2019-04-03T19:44:41.743Z,7.47
2019-04-03T19:47:12.770Z,7.46
2019-04-03T19:49:43.387Z,7.40
2019-04-03T19:52:14.248Z,7.38
2019-04-03T19:54:44.657Z,7.37
2019-04-03T19:57:15.307Z,7.39
2019-04-03T19:59:45.885Z,7.41
2019-04-03T20:02:16.106Z,7.36
2019-04-03T20:04:50.899Z,7.33
2019-04-03T20:07:21.377Z,7.31
2019-04-03T20:09:51.819Z,7.37
2019-04-03T20:12:23.495Z,7.33
2019-04-03T20:14:58.461Z,7.34
2019-04-03T20:17:26.126Z,7.32
2019-04-03T20:19:57.878Z,7.21
2019-04-03T20:22:29.162Z,7.19
2019-04-03T20:25:00.594Z,7.11
2019-04-03T20:27:31.513Z,7.08
2019-04-03T20:30:01.972Z,7.09
2019-04-03T20:32:32.264Z,7.06
2019-04-03T20:35:02.559Z,7.03
2019-04-03T20:37:33.225Z,7.01
2019-04-03T20:40:04.186Z,6.94
2019-04-03T20:42:35.007Z,6.86
2019-04-03T20:45:06.114Z,6.86
2019-04-03T20:47:36.347Z,6.76
2019-04-03T20:50:07.720Z,6.68
2019-04-03T20:52:38.340Z,6.63
2019-04-03T20:55:08.988Z,6.64
2019-04-03T20:57:39.574Z,6.65
2019-04-03T21:00:12.991Z,6.63
2019-04-03T21:02:43.296Z,6.64
2019-04-03T21:05:13.574Z,6.62
2019-04-03T21:07:43.796Z,6.61
2019-04-03T21:10:14.095Z,6.62
2019-04-03T21:12:44.763Z,6.64
2019-04-03T21:15:15.485Z,6.62
2019-04-03T21:17:45.778Z,6.55
2019-04-03T21:20:17.332Z,6.53
2019-04-03T21:22:47.670Z,6.50
2019-04-03T21:25:18.079Z,6.53
2019-04-03T21:27:48.289Z,6.53
2019-04-03T21:30:19.230Z,6.55
2019-04-03T21:32:49.336Z,6.51
2019-04-03T21:35:19.681Z,6.50
2019-04-03T21:37:49.964Z,6.51
2019-04-03T21:40:20.152Z,6.54
2019-04-03T21:42:59.588Z,6.57
2019-04-03T21:45:30.258Z,6.59
2019-04-03T21:48:00.524Z,6.60
2019-04-03T21:50:30.770Z,6.58
2019-04-03T21:53:01.036Z,6.53
2019-04-03T21:55:34.616Z,6.47
2019-04-03T21:58:04.111Z,6.34
2019-04-03T22:01:11.225Z,6.33
2019-04-03T22:03:41.560Z,6.29
2019-04-03T22:06:11.800Z,6.28
2019-04-03T22:08:42.010Z,6.32
2019-04-03T22:11:12.391Z,6.30
2019-04-03T22:13:42.633Z,6.28
2019-04-03T22:16:13.279Z,6.30
2019-04-03T22:18:43.718Z,6.30
2019-04-03T22:21:14.014Z,6.27
2019-04-03T22:23:44.158Z,6.20
2019-04-03T22:26:14.430Z,6.13
2019-04-03T22:28:46.504Z,6.10
2019-04-03T22:31:16.875Z,6.04
2019-04-03T22:33:47.153Z,5.96
2019-04-03T22:36:17.446Z,5.91
2019-04-03T22:38:47.667Z,5.89
2019-04-03T22:41:18.365Z,5.88
2019-04-03T22:43:48.662Z,5.87
2019-04-03T22:46:21.633Z,5.83
2019-04-03T22:48:50.900Z,5.80
2019-04-03T22:51:21.191Z,5.77
2019-04-03T22:53:51.558Z,5.78
2019-04-03T22:56:21.740Z,5.74
2019-04-03T22:58:52.934Z,5.73
2019-04-03T23:01:23.805Z,5.79
2019-04-03T23:03:54.170Z,5.80
2019-04-03T23:06:24.481Z,5.80
2019-04-03T23:08:54.708Z,5.79
2019-04-03T23:11:24.864Z,5.80
2019-04-03T23:13:55.123Z,5.78
2019-04-03T23:16:25.351Z,5.74
2019-04-03T23:18:56.095Z,5.68
2019-04-03T23:21:26.484Z,5.62
2019-04-03T23:23:57.913Z,5.53
2019-04-03T23:26:31.791Z,5.43
2019-04-03T23:29:00.879Z,5.37
2019-04-03T23:31:31.049Z,5.35
2019-04-03T23:34:03.223Z,5.33
2019-04-03T23:36:33.640Z,5.30
2019-04-03T23:39:05.996Z,5.26
2019-04-03T23:41:37.016Z,5.22
2019-04-03T23:44:07.150Z,5.18
2019-04-03T23:46:37.471Z,5.12
2019-04-03T23:49:07.613Z,5.09
2019-04-03T23:51:37.799Z,5.08
2019-04-03T23:54:07.959Z,4.91
2019-04-03T23:56:38.886Z,4.91
2019-04-03T23:59:12.799Z,4.89
